createdAt,value
2018-04-16T00:02:36.730Z,15.07
2018-04-16T00:17:34.935Z,15.30
2018-04-16T00:32:41.884Z,14.80
2018-04-16T00:47:39.955Z,14.17
2018-04-16T01:02:41.073Z,14.57
2018-04-16T01:17:39.554Z,13.00
2018-04-16T01:32:52.293Z,13.60
2018-04-16T01:47:40.051Z,13.50
2018-04-16T02:02:40.129Z,15.03
2018-04-16T02:17:40.447Z,15.00
2018-04-16T02:32:40.563Z,15.33
2018-04-16T02:47:42.462Z,13.87
2018-04-16T03:02:45.248Z,13.70
2018-04-16T03:17:40.312Z,12.63
2018-04-16T03:32:41.581Z,12.40
2018-04-16T03:47:41.601Z,12.10
2018-04-16T04:02:35.272Z,11.33
2018-04-16T04:17:35.082Z,12.07
2018-04-16T04:32:34.674Z,10.60
2018-04-16T04:47:34.620Z,9.90
2018-04-16T05:02:34.566Z,9.60
2018-04-16T05:17:36.353Z,7.57
2018-04-16T05:32:35.052Z,6.87
2018-04-16T05:47:34.851Z,7.20
2018-04-16T06:02:35.668Z,6.77
2018-04-16T06:17:34.786Z,5.87
2018-04-16T06:32:37.176Z,6.60
2018-04-16T06:47:35.236Z,5.70
2018-04-16T07:02:36.114Z,6.17
2018-04-16T07:17:35.115Z,6.63
2018-04-16T07:32:34.515Z,6.20
2018-04-16T07:47:34.431Z,6.23
2018-04-16T08:02:34.579Z,6.80
2018-04-16T08:17:34.873Z,6.47
2018-04-16T08:32:34.770Z,7.20
2018-04-16T08:47:34.738Z,7.20
2018-04-16T09:02:35.552Z,7.20
2018-04-16T09:17:34.661Z,6.33
2018-04-16T09:32:34.520Z,6.87
2018-04-16T09:47:35.002Z,6.40
2018-04-16T10:02:35.069Z,6.67
2018-04-16T10:17:34.735Z,6.70
2018-04-16T10:32:35.286Z,7.00
2018-04-16T10:47:37.804Z,7.30
2018-04-16T11:02:34.779Z,6.77
2018-04-16T11:17:34.978Z,7.23
2018-04-16T11:32:34.611Z,6.23
2018-04-16T11:47:35.115Z,6.30
2018-04-16T12:02:34.537Z,6.77
2018-04-16T12:17:34.546Z,6.33
2018-04-16T12:32:34.875Z,6.40
2018-04-16T12:47:34.857Z,6.30
2018-04-16T13:02:34.774Z,6.17
2018-04-16T13:17:36.835Z,6.80
2018-04-16T13:32:36.422Z,6.57
2018-04-16T13:47:35.114Z,7.13
2018-04-16T14:02:35.061Z,7.67
2018-04-16T14:17:35.096Z,10.30
2018-04-16T14:32:36.505Z,9.40
2018-04-16T14:47:34.968Z,7.43
2018-04-16T15:02:36.406Z,8.13
2018-04-16T15:17:35.787Z,8.00
2018-04-16T15:32:37.684Z,9.40
2018-04-16T15:47:34.531Z,9.40
2018-04-16T16:02:35.774Z,13.47
2018-04-16T16:17:34.550Z,16.93
2018-04-16T16:32:34.318Z,14.80
2018-04-16T16:47:35.271Z,15.70
2018-04-16T17:02:34.965Z,15.20
2018-04-16T17:17:34.395Z,11.30
2018-04-16T17:32:35.246Z,11.90
2018-04-16T17:47:37.229Z,12.10
2018-04-16T18:02:34.793Z,10.73
2018-04-16T18:17:34.607Z,9.23
2018-04-16T18:32:35.103Z,10.20
2018-04-16T18:47:35.026Z,9.70
2018-04-16T19:02:36.455Z,10.20
2018-04-16T19:17:40.087Z,10.50
2018-04-16T19:32:43.975Z,11.80
2018-04-16T19:47:35.806Z,11.63
2018-04-16T20:02:40.926Z,11.73
2018-04-16T20:17:34.778Z,19.00
2018-04-16T20:32:35.114Z,14.17
2018-04-16T20:47:36.168Z,19.97
2018-04-16T21:02:35.040Z,19.70
2018-04-16T21:17:37.637Z,20.40
2018-04-16T21:32:34.414Z,20.60
2018-04-16T21:47:37.379Z,22.00
2018-04-16T22:02:34.351Z,19.77
2018-04-16T22:17:34.275Z,19.10
2018-04-16T22:32:34.478Z,18.73
2018-04-16T22:47:34.415Z,15.70
2018-04-16T23:02:35.627Z,17.33
2018-04-16T23:17:34.339Z,15.97
2018-04-16T23:32:34.997Z,17.27
2018-04-16T23:47:36.114Z,18.20
